sensor_id;sensor_type;location;lat;lon;timestamp;P1;durP1;ratioP1;P2;durP2;ratioP2
2129;SDS011;1071;52.544;13.374;2023-07-29T00:01:15;8.43;;;6.80;;
2129;SDS011;1071;52.544;13.374;2023-07-29T00:03:42;6.80;;;6.30;;
2129;SDS011;1071;52.544;13.374;2023-07-29T00:06:11;6.90;;;6.40;;
2129;SDS011;1071;52.544;13.374;2023-07-29T00:08:38;7.57;;;6.90;;
2129;SDS011;1071;52.544;13.374;2023-07-29T00:11:05;6.27;;;5.83;;
2129;SDS011;1071;52.544;13.374;2023-07-29T00:13:32;8.23;;;7.60;;
2129;SDS011;1071;52.544;13.374;2023-07-29T00:15:58;7.20;;;6.70;;
2129;SDS011;1071;52.544;13.374;2023-07-29T00:18:25;7.67;;;7.17;;
2129;SDS011;1071;52.544;13.374;2023-07-29T00:20:55;7.70;;;7.10;;
2129;SDS011;1071;52.544;13.374;2023-07-29T00:23:24;7.70;;;7.10;;
2129;SDS011;1071;52.544;13.374;2023-07-29T00:25:51;7.07;;;6.57;;
2129;SDS011;1071;52.544;13.374;2023-07-29T00:28:18;7.87;;;7.27;;
2129;SDS011;1071;52.544;13.374;2023-07-29T00:30:45;8.07;;;7.47;;
2129;SDS011;1071;52.544;13.374;2023-07-29T00:33:12;7.27;;;6.70;;
2129;SDS011;1071;52.544;13.374;2023-07-29T00:35:39;7.53;;;6.93;;
2129;SDS011;1071;52.544;13.374;2023-07-29T00:38:06;6.90;;;6.40;;
2129;SDS011;1071;52.544;13.374;2023-07-29T00:40:35;7.10;;;6.50;;
2129;SDS011;1071;52.544;13.374;2023-07-29T00:43:04;8.53;;;7.83;;
2129;SDS011;1071;52.544;13.374;2023-07-29T00:45:32;7.73;;;7.07;;
2129;SDS011;1071;52.544;13.374;2023-07-29T00:47:59;7.93;;;7.33;;
2129;SDS011;1071;52.544;13.374;2023-07-29T00:50:28;7.67;;;7.07;;
2129;SDS011;1071;52.544;13.374;2023-07-29T00:52:58;6.90;;;6.40;;
2129;SDS011;1071;52.544;13.374;2023-07-29T00:55:25;8.10;;;7.50;;
2129;SDS011;1071;52.544;13.374;2023-07-29T00:57:58;8.17;;;7.50;;
2129;SDS011;1071;52.544;13.374;2023-07-29T01:00:26;7.93;;;7.33;;
2129;SDS011;1071;52.544;13.374;2023-07-29T01:02:53;7.77;;;7.07;;
2129;SDS011;1071;52.544;13.374;2023-07-29T01:05:20;8.60;;;7.90;;
2129;SDS011;1071;52.544;13.374;2023-07-29T01:07:49;7.40;;;6.90;;
2129;SDS011;1071;52.544;13.374;2023-07-29T01:10:26;7.97;;;7.37;;
2129;SDS011;1071;52.544;13.374;2023-07-29T01:13:06;9.53;;;8.83;;
2129;SDS011;1071;52.544;13.374;2023-07-29T01:15:41;8.60;;;7.90;;
2129;SDS011;1071;52.544;13.374;2023-07-29T01:18:14;7.33;;;6.83;;
2129;SDS011;1071;52.544;13.374;2023-07-29T01:20:48;7.63;;;7.03;;
2129;SDS011;1071;52.544;13.374;2023-07-29T01:23:23;7.93;;;7.23;;
2129;SDS011;1071;52.544;13.374;2023-07-29T01:25:50;8.30;;;7.50;;
2129;SDS011;1071;52.544;13.374;2023-07-29T01:28:17;8.23;;;7.63;;
2129;SDS011;1071;52.544;13.374;2023-07-29T01:30:44;8.53;;;7.83;;
2129;SDS011;1071;52.544;13.374;2023-07-29T01:33:16;8.60;;;7.90;;
2129;SDS011;1071;52.544;13.374;2023-07-29T01:35:46;8.00;;;7.40;;
2129;SDS011;1071;52.544;13.374;2023-07-29T01:38:17;9.47;;;8.70;;
2129;SDS011;1071;52.544;13.374;2023-07-29T01:40:49;8.70;;;8.00;;
2129;SDS011;1071;52.544;13.374;2023-07-29T01:43:19;9.70;;;8.90;;
2129;SDS011;1071;52.544;13.374;2023-07-29T01:45:48;8.93;;;8.23;;
2129;SDS011;1071;52.544;13.374;2023-07-29T01:48:16;8.23;;;7.53;;
2129;SDS011;1071;52.544;13.374;2023-07-29T01:50:45;8.87;;;8.17;;
2129;SDS011;1071;52.544;13.374;2023-07-29T01:53:12;9.03;;;8.33;;
2129;SDS011;1071;52.544;13.374;2023-07-29T01:55:39;10.00;;;9.03;;
2129;SDS011;1071;52.544;13.374;2023-07-29T01:58:08;9.43;;;8.73;;
2129;SDS011;1071;52.544;13.374;2023-07-29T02:00:35;8.60;;;7.90;;
2129;SDS011;1071;52.544;13.374;2023-07-29T02:03:02;9.60;;;8.80;;
2129;SDS011;1071;52.544;13.374;2023-07-29T02:05:29;8.00;;;7.40;;
2129;SDS011;1071;52.544;13.374;2023-07-29T02:07:57;8.30;;;7.50;;
2129;SDS011;1071;52.544;13.374;2023-07-29T02:10:24;8.77;;;8.03;;
2129;SDS011;1071;52.544;13.374;2023-07-29T02:12:50;8.43;;;7.73;;
2129;SDS011;1071;52.544;13.374;2023-07-29T02:15:19;8.20;;;7.50;;
2129;SDS011;1071;52.544;13.374;2023-07-29T02:17:46;8.37;;;7.57;;
2129;SDS011;1071;52.544;13.374;2023-07-29T02:20:13;7.87;;;7.27;;
2129;SDS011;1071;52.544;13.374;2023-07-29T02:22:42;7.20;;;6.60;;
2129;SDS011;1071;52.544;13.374;2023-07-29T02:25:09;7.40;;;6.80;;
2129;SDS011;1071;52.544;13.374;2023-07-29T02:27:36;8.27;;;7.67;;
2129;SDS011;1071;52.544;13.374;2023-07-29T02:30:03;8.90;;;8.10;;
2129;SDS011;1071;52.544;13.374;2023-07-29T02:32:32;8.30;;;7.70;;
2129;SDS011;1071;52.544;13.374;2023-07-29T02:34:59;8.30;;;7.60;;
2129;SDS011;1071;52.544;13.374;2023-07-29T02:37:26;8.10;;;7.50;;
2129;SDS011;1071;52.544;13.374;2023-07-29T02:39:54;9.67;;;8.77;;
2129;SDS011;1071;52.544;13.374;2023-07-29T02:42:21;8.60;;;7.90;;
2129;SDS011;1071;52.544;13.374;2023-07-29T02:44:47;7.63;;;7.03;;
2129;SDS011;1071;52.544;13.374;2023-07-29T02:47:15;8.40;;;7.80;;
2129;SDS011;1071;52.544;13.374;2023-07-29T02:49:43;8.10;;;7.50;;
2129;SDS011;1071;52.544;13.374;2023-07-29T02:52:12;7.73;;;7.13;;
2129;SDS011;1071;52.544;13.374;2023-07-29T02:54:39;8.20;;;7.60;;
2129;SDS011;1071;52.544;13.374;2023-07-29T02:57:06;7.77;;;7.17;;
2129;SDS011;1071;52.544;13.374;2023-07-29T02:59:33;7.93;;;7.40;;
2129;SDS011;1071;52.544;13.374;2023-07-29T03:02:00;8.57;;;7.93;;
2129;SDS011;1071;52.544;13.374;2023-07-29T03:04:27;8.93;;;8.20;;
2129;SDS011;1071;52.544;13.374;2023-07-29T03:06:58;8.67;;;8.00;;
2129;SDS011;1071;52.544;13.374;2023-07-29T03:09:26;9.43;;;8.53;;
2129;SDS011;1071;52.544;13.374;2023-07-29T03:11:53;8.73;;;8.03;;
2129;SDS011;1071;52.544;13.374;2023-07-29T03:14:24;9.33;;;8.43;;
2129;SDS011;1071;52.544;13.374;2023-07-29T03:16:51;8.67;;;8.00;;
2129;SDS011;1071;52.544;13.374;2023-07-29T03:19:18;8.50;;;7.80;;
2129;SDS011;1071;52.544;13.374;2023-07-29T03:21:45;8.30;;;7.70;;
2129;SDS011;1071;52.544;13.374;2023-07-29T03:24:16;8.77;;;8.13;;
2129;SDS011;1071;52.544;13.374;2023-07-29T03:26:44;8.27;;;7.57;;
2129;SDS011;1071;52.544;13.374;2023-07-29T03:29:10;8.93;;;8.27;;
2129;SDS011;1071;52.544;13.374;2023-07-29T03:31:37;8.37;;;7.70;;
2129;SDS011;1071;52.544;13.374;2023-07-29T03:34:04;8.47;;;7.77;;
2129;SDS011;1071;52.544;13.374;2023-07-29T03:36:31;8.23;;;7.50;;
2129;SDS011;1071;52.544;13.374;2023-07-29T03:38:59;9.47;;;8.77;;
2129;SDS011;1071;52.544;13.374;2023-07-29T03:41:29;11.30;;;10.20;;
2129;SDS011;1071;52.544;13.374;2023-07-29T03:43:57;10.27;;;9.47;;
2129;SDS011;1071;52.544;13.374;2023-07-29T03:46:24;7.80;;;7.20;;
2129;SDS011;1071;52.544;13.374;2023-07-29T03:48:54;9.63;;;8.77;;
2129;SDS011;1071;52.544;13.374;2023-07-29T03:51:21;9.80;;;9.00;;
2129;SDS011;1071;52.544;13.374;2023-07-29T03:53:49;8.90;;;8.20;;
2129;SDS011;1071;52.544;13.374;2023-07-29T03:56:16;8.40;;;7.80;;
2129;SDS011;1071;52.544;13.374;2023-07-29T03:58:45;9.00;;;8.30;;
2129;SDS011;1071;52.544;13.374;2023-07-29T04:01:13;10.17;;;9.37;;
2129;SDS011;1071;52.544;13.374;2023-07-29T04:03:40;9.80;;;9.00;;
2129;SDS011;1071;52.544;13.374;2023-07-29T04:06:07;9.93;;;9.07;;
2129;SDS011;1071;52.544;13.374;2023-07-29T04:08:34;9.07;;;8.20;;
2129;SDS011;1071;52.544;13.374;2023-07-29T04:11:01;10.07;;;9.17;;
2129;SDS011;1071;52.544;13.374;2023-07-29T04:13:28;9.47;;;8.77;;
2129;SDS011;1071;52.544;13.374;2023-07-29T04:15:58;8.13;;;7.33;;
2129;SDS011;1071;52.544;13.374;2023-07-29T04:18:25;7.90;;;7.20;;
2129;SDS011;1071;52.544;13.374;2023-07-29T04:20:52;8.87;;;8.27;;
2129;SDS011;1071;52.544;13.374;2023-07-29T04:23:19;10.27;;;9.37;;
2129;SDS011;1071;52.544;13.374;2023-07-29T04:25:46;10.30;;;9.40;;
2129;SDS011;1071;52.544;13.374;2023-07-29T04:28:29;10.43;;;9.53;;
2129;SDS011;1071;52.544;13.374;2023-07-29T04:30:56;8.40;;;7.70;;
2129;SDS011;1071;52.544;13.374;2023-07-29T04:33:24;8.03;;;7.37;;
2129;SDS011;1071;52.544;13.374;2023-07-29T04:35:51;8.60;;;7.80;;
2129;SDS011;1071;52.544;13.374;2023-07-29T04:38:18;8.60;;;7.90;;
2129;SDS011;1071;52.544;13.374;2023-07-29T04:40:45;7.53;;;6.93;;
2129;SDS011;1071;52.544;13.374;2023-07-29T04:43:12;8.50;;;7.70;;
2129;SDS011;1071;52.544;13.374;2023-07-29T04:45:42;9.70;;;8.90;;
2129;SDS011;1071;52.544;13.374;2023-07-29T04:48:11;8.17;;;7.57;;
2129;SDS011;1071;52.544;13.374;2023-07-29T04:50:39;10.60;;;9.70;;
2129;SDS011;1071;52.544;13.374;2023-07-29T04:53:06;9.83;;;9.13;;
2129;SDS011;1071;52.544;13.374;2023-07-29T04:55:33;9.03;;;8.33;;
2129;SDS011;1071;52.544;13.374;2023-07-29T04:58:00;8.27;;;7.60;;
2129;SDS011;1071;52.544;13.374;2023-07-29T05:00:27;8.23;;;7.60;;
2129;SDS011;1071;52.544;13.374;2023-07-29T05:02:54;8.27;;;7.40;;
2129;SDS011;1071;52.544;13.374;2023-07-29T05:05:21;7.50;;;6.90;;
2129;SDS011;1071;52.544;13.374;2023-07-29T05:07:49;8.93;;;8.27;;
2129;SDS011;1071;52.544;13.374;2023-07-29T05:10:16;7.53;;;6.93;;
2129;SDS011;1071;52.544;13.374;2023-07-29T05:12:43;6.87;;;6.37;;
2129;SDS011;1071;52.544;13.374;2023-07-29T05:15:11;7.90;;;7.30;;
2129;SDS011;1071;52.544;13.374;2023-07-29T05:17:38;7.77;;;7.17;;
2129;SDS011;1071;52.544;13.374;2023-07-29T05:20:06;7.50;;;6.97;;
2129;SDS011;1071;52.544;13.374;2023-07-29T05:22:34;7.60;;;7.00;;
2129;SDS011;1071;52.544;13.374;2023-07-29T05:25:02;8.87;;;8.17;;
2129;SDS011;1071;52.544;13.374;2023-07-29T05:27:30;7.80;;;7.20;;
2129;SDS011;1071;52.544;13.374;2023-07-29T05:29:56;6.53;;;6.03;;
2129;SDS011;1071;52.544;13.374;2023-07-29T05:32:23;7.40;;;6.90;;
2129;SDS011;1071;52.544;13.374;2023-07-29T05:34:50;9.20;;;8.50;;
2129;SDS011;1071;52.544;13.374;2023-07-29T05:37:17;8.03;;;7.43;;
2129;SDS011;1071;52.544;13.374;2023-07-29T05:39:44;7.17;;;6.67;;
2129;SDS011;1071;52.544;13.374;2023-07-29T05:42:12;7.40;;;6.90;;
2129;SDS011;1071;52.544;13.374;2023-07-29T05:44:39;8.70;;;8.10;;
2129;SDS011;1071;52.544;13.374;2023-07-29T05:47:18;7.30;;;6.77;;
2129;SDS011;1071;52.544;13.374;2023-07-29T05:49:45;7.00;;;6.50;;
2129;SDS011;1071;52.544;13.374;2023-07-29T05:52:19;7.83;;;7.23;;
2129;SDS011;1071;52.544;13.374;2023-07-29T05:54:48;6.97;;;6.47;;
2129;SDS011;1071;52.544;13.374;2023-07-29T05:57:17;7.80;;;7.20;;
2129;SDS011;1071;52.544;13.374;2023-07-29T05:59:44;6.90;;;6.40;;
2129;SDS011;1071;52.544;13.374;2023-07-29T06:02:10;7.83;;;7.27;;
2129;SDS011;1071;52.544;13.374;2023-07-29T06:04:37;7.60;;;7.03;;
2129;SDS011;1071;52.544;13.374;2023-07-29T06:07:05;7.50;;;6.90;;
2129;SDS011;1071;52.544;13.374;2023-07-29T06:09:35;7.97;;;7.30;;
2129;SDS011;1071;52.544;13.374;2023-07-29T06:12:02;7.10;;;6.60;;
2129;SDS011;1071;52.544;13.374;2023-07-29T06:14:31;7.67;;;7.07;;
2129;SDS011;1071;52.544;13.374;2023-07-29T06:17:01;8.13;;;7.50;;
2129;SDS011;1071;52.544;13.374;2023-07-29T06:19:28;9.77;;;8.43;;
2129;SDS011;1071;52.544;13.374;2023-07-29T06:21:55;8.67;;;7.90;;
2129;SDS011;1071;52.544;13.374;2023-07-29T06:24:22;7.80;;;7.30;;
2129;SDS011;1071;52.544;13.374;2023-07-29T06:26:48;8.67;;;7.97;;
2129;SDS011;1071;52.544;13.374;2023-07-29T06:29:15;7.03;;;6.53;;
2129;SDS011;1071;52.544;13.374;2023-07-29T06:31:44;7.20;;;6.70;;
2129;SDS011;1071;52.544;13.374;2023-07-29T06:34:10;7.83;;;7.33;;
2129;SDS011;1071;52.544;13.374;2023-07-29T06:36:37;7.20;;;6.70;;
2129;SDS011;1071;52.544;13.374;2023-07-29T06:39:04;6.40;;;5.90;;
2129;SDS011;1071;52.544;13.374;2023-07-29T06:41:31;6.63;;;6.20;;
2129;SDS011;1071;52.544;13.374;2023-07-29T06:43:58;8.20;;;7.60;;
2129;SDS011;1071;52.544;13.374;2023-07-29T06:46:26;7.03;;;6.43;;
2129;SDS011;1071;52.544;13.374;2023-07-29T06:48:54;7.43;;;6.70;;
2129;SDS011;1071;52.544;13.374;2023-07-29T06:51:21;7.20;;;6.70;;
2129;SDS011;1071;52.544;13.374;2023-07-29T06:53:48;6.30;;;5.87;;
2129;SDS011;1071;52.544;13.374;2023-07-29T06:56:15;7.70;;;7.10;;
2129;SDS011;1071;52.544;13.374;2023-07-29T06:58:42;7.57;;;6.97;;
2129;SDS011;1071;52.544;13.374;2023-07-29T07:01:09;7.13;;;6.43;;
2129;SDS011;1071;52.544;13.374;2023-07-29T07:03:36;7.10;;;6.50;;
2129;SDS011;1071;52.544;13.374;2023-07-29T07:06:05;6.13;;;5.73;;
2129;SDS011;1071;52.544;13.374;2023-07-29T07:08:44;6.17;;;5.73;;
2129;SDS011;1071;52.544;13.374;2023-07-29T07:11:13;6.80;;;6.20;;
2129;SDS011;1071;52.544;13.374;2023-07-29T07:13:40;5.40;;;4.90;;
2129;SDS011;1071;52.544;13.374;2023-07-29T07:16:07;6.13;;;5.73;;
2129;SDS011;1071;52.544;13.374;2023-07-29T07:18:34;5.80;;;5.40;;
2129;SDS011;1071;52.544;13.374;2023-07-29T07:21:01;6.20;;;5.70;;
2129;SDS011;1071;52.544;13.374;2023-07-29T07:23:29;7.20;;;6.50;;
2129;SDS011;1071;52.544;13.374;2023-07-29T07:25:56;7.53;;;6.93;;
2129;SDS011;1071;52.544;13.374;2023-07-29T07:28:32;5.43;;;5.13;;
2129;SDS011;1071;52.544;13.374;2023-07-29T07:30:59;6.80;;;6.20;;
2129;SDS011;1071;52.544;13.374;2023-07-29T07:33:26;5.90;;;5.50;;
2129;SDS011;1071;52.544;13.374;2023-07-29T07:35:52;6.50;;;6.00;;
2129;SDS011;1071;52.544;13.374;2023-07-29T07:38:19;6.73;;;6.13;;
2129;SDS011;1071;52.544;13.374;2023-07-29T07:40:53;6.33;;;5.93;;
2129;SDS011;1071;52.544;13.374;2023-07-29T07:43:24;7.77;;;7.20;;
2129;SDS011;1071;52.544;13.374;2023-07-29T07:45:57;9.40;;;8.60;;
2129;SDS011;1071;52.544;13.374;2023-07-29T07:48:25;9.03;;;8.43;;
2129;SDS011;1071;52.544;13.374;2023-07-29T07:50:51;8.00;;;7.50;;
2129;SDS011;1071;52.544;13.374;2023-07-29T07:53:18;8.57;;;8.03;;
2129;SDS011;1071;52.544;13.374;2023-07-29T07:55:50;9.07;;;8.47;;
2129;SDS011;1071;52.544;13.374;2023-07-29T08:01:15;10.30;;;9.30;;
2129;SDS011;1071;52.544;13.374;2023-07-29T08:04:01;7.17;;;6.67;;
2129;SDS011;1071;52.544;13.374;2023-07-29T08:06:28;7.63;;;7.13;;
2129;SDS011;1071;52.544;13.374;2023-07-29T08:11:59;7.20;;;6.70;;
2129;SDS011;1071;52.544;13.374;2023-07-29T08:14:26;7.73;;;7.13;;
2129;SDS011;1071;52.544;13.374;2023-07-29T08:16:56;7.60;;;7.00;;
2129;SDS011;1071;52.544;13.374;2023-07-29T08:19:23;7.20;;;6.60;;
2129;SDS011;1071;52.544;13.374;2023-07-29T08:21:59;6.30;;;5.90;;
2129;SDS011;1071;52.544;13.374;2023-07-29T08:24:29;6.17;;;5.67;;
2129;SDS011;1071;52.544;13.374;2023-07-29T08:26:55;5.90;;;5.47;;
2129;SDS011;1071;52.544;13.374;2023-07-29T08:29:26;5.80;;;5.40;;
2129;SDS011;1071;52.544;13.374;2023-07-29T08:31:53;5.53;;;5.13;;
2129;SDS011;1071;52.544;13.374;2023-07-29T08:34:20;5.13;;;4.83;;
2129;SDS011;1071;52.544;13.374;2023-07-29T08:36:47;4.27;;;3.97;;
2129;SDS011;1071;52.544;13.374;2023-07-29T08:39:14;4.87;;;4.57;;
2129;SDS011;1071;52.544;13.374;2023-07-29T08:41:44;5.73;;;5.03;;
2129;SDS011;1071;52.544;13.374;2023-07-29T08:47:17;4.87;;;4.57;;
2129;SDS011;1071;52.544;13.374;2023-07-29T08:49:51;4.30;;;4.10;;
2129;SDS011;1071;52.544;13.374;2023-07-29T08:52:19;4.37;;;4.07;;
2129;SDS011;1071;52.544;13.374;2023-07-29T08:54:52;4.50;;;4.20;;
2129;SDS011;1071;52.544;13.374;2023-07-29T08:57:21;4.00;;;3.70;;
2129;SDS011;1071;52.544;13.374;2023-07-29T08:59:52;3.90;;;3.60;;
2129;SDS011;1071;52.544;13.374;2023-07-29T09:02:22;4.90;;;4.50;;
2129;SDS011;1071;52.544;13.374;2023-07-29T09:04:49;5.13;;;4.73;;
2129;SDS011;1071;52.544;13.374;2023-07-29T09:07:17;4.67;;;4.37;;
2129;SDS011;1071;52.544;13.374;2023-07-29T09:09:46;3.80;;;3.50;;
2129;SDS011;1071;52.544;13.374;2023-07-29T09:12:13;3.63;;;3.43;;
2129;SDS011;1071;52.544;13.374;2023-07-29T09:14:42;3.80;;;3.60;;
2129;SDS011;1071;52.544;13.374;2023-07-29T09:17:10;4.10;;;3.90;;
2129;SDS011;1071;52.544;13.374;2023-07-29T09:19:38;3.37;;;3.17;;
2129;SDS011;1071;52.544;13.374;2023-07-29T09:22:05;4.10;;;3.90;;
2129;SDS011;1071;52.544;13.374;2023-07-29T09:24:46;4.10;;;3.90;;
2129;SDS011;1071;52.544;13.374;2023-07-29T09:27:23;4.77;;;4.47;;
2129;SDS011;1071;52.544;13.374;2023-07-29T09:29:52;5.30;;;4.90;;
2129;SDS011;1071;52.544;13.374;2023-07-29T09:32:28;4.43;;;4.03;;
2129;SDS011;1071;52.544;13.374;2023-07-29T09:34:58;4.50;;;4.10;;
2129;SDS011;1071;52.544;13.374;2023-07-29T09:37:29;4.60;;;4.20;;
2129;SDS011;1071;52.544;13.374;2023-07-29T09:39:59;4.03;;;3.73;;
2129;SDS011;1071;52.544;13.374;2023-07-29T09:42:57;4.13;;;3.83;;
2129;SDS011;1071;52.544;13.374;2023-07-29T09:45:25;3.93;;;3.73;;
2129;SDS011;1071;52.544;13.374;2023-07-29T09:47:56;4.53;;;4.23;;
2129;SDS011;1071;52.544;13.374;2023-07-29T09:50:24;4.43;;;4.07;;
2129;SDS011;1071;52.544;13.374;2023-07-29T09:52:52;5.30;;;4.90;;
2129;SDS011;1071;52.544;13.374;2023-07-29T09:55:21;3.73;;;3.53;;
2129;SDS011;1071;52.544;13.374;2023-07-29T09:57:52;3.53;;;3.33;;
2129;SDS011;1071;52.544;13.374;2023-07-29T10:00:22;4.20;;;4.00;;
2129;SDS011;1071;52.544;13.374;2023-07-29T10:02:54;3.67;;;3.47;;
2129;SDS011;1071;52.544;13.374;2023-07-29T10:05:42;4.20;;;3.93;;
2129;SDS011;1071;52.544;13.374;2023-07-29T10:09:11;4.30;;;3.83;;
2129;SDS011;1071;52.544;13.374;2023-07-29T10:11:41;4.10;;;3.80;;
2129;SDS011;1071;52.544;13.374;2023-07-29T10:14:19;3.87;;;3.67;;
2129;SDS011;1071;52.544;13.374;2023-07-29T10:16:49;3.60;;;3.40;;
2129;SDS011;1071;52.544;13.374;2023-07-29T10:19:19;4.50;;;4.10;;
2129;SDS011;1071;52.544;13.374;2023-07-29T10:21:50;3.67;;;3.40;;
2129;SDS011;1071;52.544;13.374;2023-07-29T10:24:22;4.20;;;3.90;;
2129;SDS011;1071;52.544;13.374;2023-07-29T10:26:55;3.30;;;3.10;;
2129;SDS011;1071;52.544;13.374;2023-07-29T10:29:28;4.23;;;4.03;;
2129;SDS011;1071;52.544;13.374;2023-07-29T10:31:57;4.50;;;4.20;;
2129;SDS011;1071;52.544;13.374;2023-07-29T10:34:45;3.73;;;3.53;;
2129;SDS011;1071;52.544;13.374;2023-07-29T10:37:13;4.40;;;4.10;;
2129;SDS011;1071;52.544;13.374;2023-07-29T10:39:40;3.53;;;3.23;;
2129;SDS011;1071;52.544;13.374;2023-07-29T10:42:21;3.57;;;3.33;;
2129;SDS011;1071;52.544;13.374;2023-07-29T10:44:49;3.43;;;3.23;;
2129;SDS011;1071;52.544;13.374;2023-07-29T10:47:18;4.63;;;3.57;;
2129;SDS011;1071;52.544;13.374;2023-07-29T10:49:49;4.20;;;3.90;;
2129;SDS011;1071;52.544;13.374;2023-07-29T10:52:29;4.77;;;4.37;;
2129;SDS011;1071;52.544;13.374;2023-07-29T10:55:22;3.90;;;3.60;;
2129;SDS011;1071;52.544;13.374;2023-07-29T10:57:51;3.90;;;3.50;;
2129;SDS011;1071;52.544;13.374;2023-07-29T11:00:19;4.73;;;3.30;;
2129;SDS011;1071;52.544;13.374;2023-07-29T11:02:56;4.60;;;4.30;;
2129;SDS011;1071;52.544;13.374;2023-07-29T11:05:28;3.87;;;3.57;;
2129;SDS011;1071;52.544;13.374;2023-07-29T11:08:18;3.73;;;3.43;;
2129;SDS011;1071;52.544;13.374;2023-07-29T11:11:06;4.00;;;3.70;;
2129;SDS011;1071;52.544;13.374;2023-07-29T11:13:34;4.83;;;3.30;;
2129;SDS011;1071;52.544;13.374;2023-07-29T11:16:04;3.60;;;3.40;;
2129;SDS011;1071;52.544;13.374;2023-07-29T11:18:32;9.63;;;4.30;;
2129;SDS011;1071;52.544;13.374;2023-07-29T11:21:01;10.10;;;3.43;;
2129;SDS011;1071;52.544;13.374;2023-07-29T11:23:30;5.77;;;3.40;;
2129;SDS011;1071;52.544;13.374;2023-07-29T11:26:00;5.07;;;3.37;;
2129;SDS011;1071;52.544;13.374;2023-07-29T11:28:27;4.60;;;2.20;;
2129;SDS011;1071;52.544;13.374;2023-07-29T11:30:55;3.40;;;2.37;;
2129;SDS011;1071;52.544;13.374;2023-07-29T11:33:23;2.60;;;1.80;;
2129;SDS011;1071;52.544;13.374;2023-07-29T11:35:55;4.13;;;2.47;;
2129;SDS011;1071;52.544;13.374;2023-07-29T11:38:25;2.57;;;2.00;;
2129;SDS011;1071;52.544;13.374;2023-07-29T11:40:55;1.93;;;1.70;;
2129;SDS011;1071;52.544;13.374;2023-07-29T11:43:24;2.73;;;1.97;;
2129;SDS011;1071;52.544;13.374;2023-07-29T11:45:51;2.93;;;2.27;;
2129;SDS011;1071;52.544;13.374;2023-07-29T11:48:26;2.80;;;1.70;;
2129;SDS011;1071;52.544;13.374;2023-07-29T11:50:53;1.90;;;1.80;;
2129;SDS011;1071;52.544;13.374;2023-07-29T11:53:26;5.23;;;4.80;;
2129;SDS011;1071;52.544;13.374;2023-07-29T11:55:55;17.53;;;15.87;;
2129;SDS011;1071;52.544;13.374;2023-07-29T11:58:22;8.63;;;7.83;;
2129;SDS011;1071;52.544;13.374;2023-07-29T12:00:50;13.93;;;12.70;;
2129;SDS011;1071;52.544;13.374;2023-07-29T12:03:18;11.27;;;10.27;;
2129;SDS011;1071;52.544;13.374;2023-07-29T12:05:47;6.17;;;5.27;;
2129;SDS011;1071;52.544;13.374;2023-07-29T12:08:19;5.23;;;4.83;;
2129;SDS011;1071;52.544;13.374;2023-07-29T12:10:52;3.90;;;3.40;;
2129;SDS011;1071;52.544;13.374;2023-07-29T12:13:23;2.97;;;2.53;;
2129;SDS011;1071;52.544;13.374;2023-07-29T12:15:50;4.00;;;2.60;;
2129;SDS011;1071;52.544;13.374;2023-07-29T12:18:18;2.80;;;2.60;;
2129;SDS011;1071;52.544;13.374;2023-07-29T12:20:46;2.30;;;2.10;;
2129;SDS011;1071;52.544;13.374;2023-07-29T12:23:18;1.50;;;1.40;;
2129;SDS011;1071;52.544;13.374;2023-07-29T12:25:57;4.80;;;2.13;;
2129;SDS011;1071;52.544;13.374;2023-07-29T12:28:24;2.10;;;1.60;;
2129;SDS011;1071;52.544;13.374;2023-07-29T12:30:52;4.33;;;4.00;;
2129;SDS011;1071;52.544;13.374;2023-07-29T12:33:29;6.90;;;6.30;;
2129;SDS011;1071;52.544;13.374;2023-07-29T12:35:57;2.77;;;2.57;;
2129;SDS011;1071;52.544;13.374;2023-07-29T12:38:32;3.47;;;2.47;;
2129;SDS011;1071;52.544;13.374;2023-07-29T12:41:01;2.10;;;1.90;;
2129;SDS011;1071;52.544;13.374;2023-07-29T12:43:28;2.40;;;2.20;;
2129;SDS011;1071;52.544;13.374;2023-07-29T12:45:56;2.23;;;2.10;;
2129;SDS011;1071;52.544;13.374;2023-07-29T12:48:23;3.40;;;3.10;;
2129;SDS011;1071;52.544;13.374;2023-07-29T12:50:50;3.20;;;3.00;;
2129;SDS011;1071;52.544;13.374;2023-07-29T12:53:17;4.37;;;3.10;;
2129;SDS011;1071;52.544;13.374;2023-07-29T12:55:45;3.60;;;3.40;;
2129;SDS011;1071;52.544;13.374;2023-07-29T12:58:15;3.90;;;3.60;;
2129;SDS011;1071;52.544;13.374;2023-07-29T13:00:44;4.30;;;4.00;;
2129;SDS011;1071;52.544;13.374;2023-07-29T13:03:16;6.67;;;6.17;;
2129;SDS011;1071;52.544;13.374;2023-07-29T13:05:46;5.40;;;4.90;;
2129;SDS011;1071;52.544;13.374;2023-07-29T13:08:15;5.90;;;5.40;;
2129;SDS011;1071;52.544;13.374;2023-07-29T13:10:44;31.90;;;28.70;;
2129;SDS011;1071;52.544;13.374;2023-07-29T13:13:12;37.73;;;34.17;;
2129;SDS011;1071;52.544;13.374;2023-07-29T13:15:41;52.60;;;47.40;;
2129;SDS011;1071;52.544;13.374;2023-07-29T13:18:08;62.37;;;56.10;;
2129;SDS011;1071;52.544;13.374;2023-07-29T13:20:35;59.50;;;53.53;;
2129;SDS011;1071;52.544;13.374;2023-07-29T13:23:04;58.03;;;52.23;;
2129;SDS011;1071;52.544;13.374;2023-07-29T13:25:34;47.67;;;43.00;;
2129;SDS011;1071;52.544;13.374;2023-07-29T13:28:01;41.93;;;38.03;;
2129;SDS011;1071;52.544;13.374;2023-07-29T13:30:33;34.90;;;31.40;;
2129;SDS011;1071;52.544;13.374;2023-07-29T13:33:05;32.00;;;28.90;;
2129;SDS011;1071;52.544;13.374;2023-07-29T13:35:33;36.07;;;32.57;;
2129;SDS011;1071;52.544;13.374;2023-07-29T13:38:03;41.70;;;37.50;;
2129;SDS011;1071;52.544;13.374;2023-07-29T13:40:31;37.17;;;33.47;;
2129;SDS011;1071;52.544;13.374;2023-07-29T13:43:06;36.67;;;32.90;;
2129;SDS011;1071;52.544;13.374;2023-07-29T13:45:36;38.60;;;34.47;;
2129;SDS011;1071;52.544;13.374;2023-07-29T13:48:29;33.93;;;30.70;;
2129;SDS011;1071;52.544;13.374;2023-07-29T13:51:12;39.50;;;35.50;;
2129;SDS011;1071;52.544;13.374;2023-07-29T13:53:56;43.60;;;39.17;;
2129;SDS011;1071;52.544;13.374;2023-07-29T13:56:23;43.87;;;39.43;;
2129;SDS011;1071;52.544;13.374;2023-07-29T13:58:50;48.47;;;43.40;;
2129;SDS011;1071;52.544;13.374;2023-07-29T14:01:17;63.17;;;56.63;;
2129;SDS011;1071;52.544;13.374;2023-07-29T14:03:46;70.47;;;62.80;;
2129;SDS011;1071;52.544;13.374;2023-07-29T14:06:13;74.23;;;66.33;;
2129;SDS011;1071;52.544;13.374;2023-07-29T14:08:44;68.67;;;61.43;;
2129;SDS011;1071;52.544;13.374;2023-07-29T14:12:32;67.40;;;60.23;;
2129;SDS011;1071;52.544;13.374;2023-07-29T14:14:33;52.90;;;47.30;;
2129;SDS011;1071;52.544;13.374;2023-07-29T14:17:01;54.90;;;49.20;;
2129;SDS011;1071;52.544;13.374;2023-07-29T14:19:29;49.03;;;44.00;;
2129;SDS011;1071;52.544;13.374;2023-07-29T14:21:59;37.63;;;33.80;;
2129;SDS011;1071;52.544;13.374;2023-07-29T14:24:26;34.73;;;31.13;;
2129;SDS011;1071;52.544;13.374;2023-07-29T14:26:53;50.10;;;44.80;;
2129;SDS011;1071;52.544;13.374;2023-07-29T14:29:34;54.40;;;48.70;;
2129;SDS011;1071;52.544;13.374;2023-07-29T14:32:03;61.03;;;53.30;;
2129;SDS011;1071;52.544;13.374;2023-07-29T14:34:32;72.07;;;64.17;;
2129;SDS011;1071;52.544;13.374;2023-07-29T14:36:59;76.40;;;67.83;;
2129;SDS011;1071;52.544;13.374;2023-07-29T14:39:28;59.27;;;52.87;;
2129;SDS011;1071;52.544;13.374;2023-07-29T14:41:55;47.53;;;42.40;;
2129;SDS011;1071;52.544;13.374;2023-07-29T14:44:22;30.40;;;27.10;;
2129;SDS011;1071;52.544;13.374;2023-07-29T14:46:51;27.60;;;24.70;;
2129;SDS011;1071;52.544;13.374;2023-07-29T14:49:19;28.20;;;25.20;;
2129;SDS011;1071;52.544;13.374;2023-07-29T14:51:49;35.23;;;31.60;;
2129;SDS011;1071;52.544;13.374;2023-07-29T14:54:16;38.70;;;34.53;;
2129;SDS011;1071;52.544;13.374;2023-07-29T14:56:43;40.33;;;36.10;;
2129;SDS011;1071;52.544;13.374;2023-07-29T14:59:10;40.13;;;35.80;;
2129;SDS011;1071;52.544;13.374;2023-07-29T15:01:37;19.87;;;17.87;;
2129;SDS011;1071;52.544;13.374;2023-07-29T15:04:04;16.50;;;14.70;;
2129;SDS011;1071;52.544;13.374;2023-07-29T15:06:33;21.30;;;19.27;;
2129;SDS011;1071;52.544;13.374;2023-07-29T15:09:02;19.70;;;17.77;;
2129;SDS011;1071;52.544;13.374;2023-07-29T15:11:29;24.23;;;21.23;;
2129;SDS011;1071;52.544;13.374;2023-07-29T15:13:57;20.80;;;18.70;;
2129;SDS011;1071;52.544;13.374;2023-07-29T15:16:24;14.33;;;13.03;;
2129;SDS011;1071;52.544;13.374;2023-07-29T15:18:51;10.47;;;9.47;;
2129;SDS011;1071;52.544;13.374;2023-07-29T15:21:18;8.33;;;7.53;;